In Rescue
 
Open Full Screen Window  High Contrast Mode
Wind Gusting 20 knots
13
April 20, 2024 7:52 AM CDT
Weather Information
Wind Direction
  310 °
Wind Speed
  13 kt (15 mph)
Wind Gust
  20 kt (23 mph)
Altimeter
30.24 in
Visibility
10 SM
Temperature
-01° C
30° F
Dewpoint
-06° C
21° F
Humidity
69%
Sky Condition
Overcast @ 3,100 ft
VFR

METAR KTOB 201252Z AUTO 31013G20KT 10SM OVC031 M01/M06 A3024 RMK AO2

FAA Disclaimer: The data displayed is for advisory purposes only and is not to be used for flight planning or operations.